Terminal Aerodrome Forecast
Issued by NWS

Home | Current Version | Previous Version | Graphics & Text | Print | Product List | Glossary On
Versions: 1 2 3 4 5 6 7 8 9 10 11 12 13 14 15 16 17 18
000
FTUS43 KIWX 241300 AAA
TAFSBN
TAF AMD
KSBN 241346Z 2414/2512 22011KT 6SM -SHRA BR OVC004
     FM241500 24018G25KT P6SM -SHRA OVC008
     FM241900 24022G35KT 6SM -RASN OVC010
     FM250100 25018G28KT 4SM -SHSN OVC015
     FM250700 26013G21KT P6SM OVC020=

USA.gov is the U.S. government's official web portal to all federal, state and local government web resources and services.